Time;durP1;ratioP1;P1;durP2;ratioP2;P2;SDS_P1;SDS_P2;PMS_P1;PMS_P2;Temp;Humidity;BMP_temperature;BMP_pressure;BME280_temperature;BME280_humidity;BME280_pressure;Samples;Min_cycle;Max_cycle;Signal;HPM_P1;HPM_P2
2023/05/17 00:02:03;;;;;;;;;;;;;;;9.19;100.00;102480.16;5090551;28;20024;-36
2023/05/17 00:04:29;;;;;;;7.77;2.43;;;;;;;9.09;100.00;102481.44;5090258;28;19977;-36
2023/05/17 00:06:54;;;;;;;10.00;2.93;;;;;;;9.10;100.00;102480.41;5090520;28;20265;-36
2023/05/17 00:09:19;;;;;;;8.10;2.93;;;;;;;9.05;100.00;102483.66;5089386;28;20071;-36
2023/05/17 00:11:45;;;;;;;9.13;2.45;;;;;;;9.02;100.00;102486.69;5081536;28;20039;-36
2023/05/17 00:14:10;;;;;;;10.77;2.73;;;;;;;8.99;100.00;102487.91;5076069;28;20035;-36
2023/05/17 00:16:36;;;;;;;8.20;3.13;;;;;;;8.97;100.00;102489.09;5076625;28;20028;-36
2023/05/17 00:19:02;;;;;;;11.55;3.15;;;;;;;9.00;100.00;102489.56;5076741;28;20028;-36
2023/05/17 00:21:27;;;;;;;13.40;3.30;;;;;;;8.88;100.00;102490.16;5076719;28;20048;-36
2023/05/17 00:23:53;;;;;;;8.80;2.87;;;;;;;8.96;100.00;102482.84;5074781;28;20029;-36
2023/05/17 00:26:19;;;;;;;9.80;2.60;;;;;;;8.89;100.00;102483.78;5076419;28;20028;-37
2023/05/17 00:28:44;;;;;;;7.32;2.38;;;;;;;8.74;100.00;102479.16;5075517;28;20408;-36
2023/05/17 00:31:09;;;;;;;11.00;3.08;;;;;;;8.89;100.00;102487.31;5075516;28;20035;-36
2023/05/17 00:33:35;;;;;;;10.17;2.63;;;;;;;8.82;100.00;102482.81;5076189;28;20035;-36
2023/05/17 00:36:00;;;;;;;6.50;2.80;;;;;;;8.83;100.00;102484.47;5075699;28;20337;-36
2023/05/17 00:38:25;;;;;;;10.63;2.90;;;;;;;8.80;100.00;102483.00;5075343;28;20032;-36
2023/05/17 00:40:52;;;;;;;10.23;3.53;;;;;;;8.76;100.00;102482.50;5075576;28;20028;-36
2023/05/17 00:43:18;;;;;;;10.85;3.13;;;;;;;8.76;100.00;102485.19;5075156;28;20271;-36
2023/05/17 00:45:43;;;;;;;8.38;2.58;;;;;;;8.72;100.00;102480.34;5076329;28;20032;-36
2023/05/17 00:48:09;;;;;;;6.73;2.60;;;;;;;8.73;100.00;102482.84;5075750;28;20032;-36
2023/05/17 00:50:35;;;;;;;;;;;;;;;8.86;100.00;102476.03;5076122;28;20350;-36
2023/05/17 00:53:00;;;;;;;8.70;2.78;;;;;;;8.77;100.00;102486.03;5075624;28;19934;-36
2023/05/17 00:55:26;;;;;;;9.30;2.80;;;;;;;8.71;100.00;102481.38;5075320;28;20039;-36
2023/05/17 00:57:52;;;;;;;8.52;2.42;;;;;;;8.66;100.00;102478.38;5075261;28;20392;-36
2023/05/17 01:00:18;;;;;;;7.53;2.90;;;;;;;8.59;100.00;102475.56;5075514;28;20051;-36
2023/05/17 01:02:43;;;;;;;9.30;3.13;;;;;;;8.64;100.00;102488.50;5075191;28;20465;-36
2023/05/17 01:05:09;;;;;;;11.67;3.23;;;;;;;8.60;100.00;102496.09;5075225;28;20062;-36
2023/05/17 01:07:34;;;;;;;12.00;3.10;;;;;;;8.61;100.00;102481.59;5075292;28;20047;-36
2023/05/17 01:10:00;;;;;;;7.67;2.83;;;;;;;8.54;100.00;102461.75;5075021;28;20028;-36
2023/05/17 01:12:50;;;;;;;15.20;3.58;;;;;;;8.64;100.00;102481.25;5075298;28;20123;-36
2023/05/17 01:15:21;;;;;;;9.50;2.90;;;;;;;8.61;100.00;102480.75;5075228;28;20374;-36
2023/05/17 01:18:02;;;;;;;7.85;2.88;;;;;;;8.44;100.00;102483.56;5074837;28;20028;-36
2023/05/17 01:20:32;;;;;;;8.68;2.75;;;;;;;8.49;100.00;102491.94;5074998;28;20415;-37
2023/05/17 01:23:44;;;;;;;7.07;3.08;;;;;;;8.50;100.00;102496.31;5073776;28;20036;-36
2023/05/17 01:26:15;;;;;;;9.20;2.70;;;;;;;8.46;100.00;102502.25;5075010;28;20418;-36
2023/05/17 01:28:43;;;;;;;13.20;3.22;;;;;;;8.40;100.00;102484.91;5074373;28;20066;-36
2023/05/17 01:31:10;;;;;;;7.82;3.08;;;;;;;8.43;100.00;102481.00;5075129;28;20437;-36
2023/05/17 01:33:36;;;;;;;14.43;3.50;;;;;;;8.41;100.00;102491.16;5075143;28;20116;-36
2023/05/17 01:36:02;;;;;;;10.88;2.95;;;;;;;8.41;100.00;102485.75;5074512;28;20021;-36
2023/05/17 01:38:27;;;;;;;12.82;3.22;;;;;;;8.37;100.00;102482.56;5074150;28;20062;-36
2023/05/17 01:41:04;;;;;;;10.80;4.03;;;;;;;8.34;100.00;102488.28;5074410;28;20062;-36
2023/05/17 01:43:42;;;;;;;;;;;;;;;8.46;100.00;102491.47;5075365;28;20411;-36
2023/05/17 01:46:23;;;;;;;9.30;3.30;;;;;;;8.39;100.00;102487.78;5074486;28;20420;-36
2023/05/17 01:49:07;;;;;;;12.23;3.38;;;;;;;8.39;100.00;102482.38;5074561;28;20035;-36
2023/05/17 01:51:38;;;;;;;10.18;3.28;;;;;;;8.33;100.00;102486.59;5074181;28;20024;-36
2023/05/17 01:54:10;;;;;;;8.43;3.45;;;;;;;8.29;100.00;102493.34;5074691;28;20111;-36
2023/05/17 01:56:41;;;;;;;9.32;3.25;;;;;;;8.15;100.00;102472.53;5073790;28;20036;-36
2023/05/17 01:59:09;;;;;;;11.43;3.72;;;;;;;8.26;100.00;102491.03;5074374;28;20059;-36
2023/05/17 02:01:35;;;;;;;8.15;3.08;;;;;;;8.27;100.00;102493.53;5074069;28;20052;-36
2023/05/17 02:04:01;;;;;;;5.78;2.63;;;;;;;8.22;100.00;102489.69;5073924;28;20024;-36
2023/05/17 02:06:26;;;;;;;8.77;3.00;;;;;;;8.26;100.00;102491.03;5074246;28;20033;-36
2023/05/17 02:08:52;;;;;;;9.60;3.70;;;;;;;8.22;100.00;102479.75;5073924;28;20309;-36
2023/05/17 02:11:17;;;;;;;11.68;3.70;;;;;;;8.20;100.00;102480.94;5074057;28;20732;-36
2023/05/17 02:13:43;;;;;;;9.53;3.07;;;;;;;8.18;100.00;102477.56;5073839;28;20100;-36
2023/05/17 02:16:08;;;;;;;8.10;2.90;;;;;;;8.23;100.00;102481.41;5073767;28;20036;-36
2023/05/17 02:18:36;;;;;;;9.60;3.67;;;;;;;8.25;100.00;102489.34;5073736;28;20029;-36
2023/05/17 02:21:01;;;;;;;9.68;3.90;;;;;;;8.22;100.00;102479.75;5073377;28;20067;-36
2023/05/17 02:23:27;;;;;;;16.05;4.57;;;;;;;8.29;100.00;102479.88;5073703;28;20052;-36
2023/05/17 02:25:52;;;;;;;16.73;5.03;;;;;;;8.26;100.00;102481.09;5073471;28;20031;-36
2023/05/17 02:28:17;;;;;;;9.80;3.47;;;;;;;8.18;100.00;102480.28;5074473;28;20029;-36
2023/05/17 02:30:44;;;;;;;12.97;4.53;;;;;;;8.17;100.00;102478.59;5073696;28;20029;-36
2023/05/17 02:33:10;;;;;;;10.82;4.05;;;;;;;8.19;100.00;102485.47;5073517;28;20023;-36
2023/05/17 02:35:35;;;;;;;8.52;3.55;;;;;;;8.29;100.00;102495.22;5073036;28;20115;-36
2023/05/17 02:38:01;;;;;;;8.63;3.90;;;;;;;8.25;100.00;102494.75;5073265;28;20025;-36
2023/05/17 02:40:26;;;;;;;8.90;3.83;;;;;;;8.28;100.00;102505.16;5073437;28;20028;-36
2023/05/17 02:42:51;;;;;;;8.00;3.53;;;;;;;8.29;100.00;102500.59;5073466;28;20335;-36
2023/05/17 02:45:17;;;;;;;11.30;4.25;;;;;;;8.30;100.00;102496.91;5073420;28;20484;-36
2023/05/17 02:47:42;;;;;;;9.20;3.73;;;;;;;8.29;100.00;102485.25;5073400;28;20154;-36
2023/05/17 02:50:08;;;;;;;8.40;3.50;;;;;;;8.33;100.00;102492.00;5073590;28;20062;-36
2023/05/17 02:52:34;;;;;;;9.80;4.10;;;;;;;8.30;100.00;102492.34;5073800;28;20033;-36
2023/05/17 02:54:59;;;;;;;8.05;3.53;;;;;;;8.37;100.00;102500.59;5073837;28;20419;-36
2023/05/17 02:57:24;;;;;;;7.83;4.30;;;;;;;8.32;100.00;102484.91;5073561;28;20141;-36
2023/05/17 02:59:50;;;;;;;10.00;4.70;;;;;;;8.39;100.00;102502.09;5073060;28;20290;-36
2023/05/17 03:02:15;;;;;;;11.90;4.63;;;;;;;8.34;100.00;102493.66;5073242;28;20040;-36
2023/05/17 03:04:41;;;;;;;9.68;4.30;;;;;;;8.45;100.00;102506.81;5072838;28;20040;-36
2023/05/17 03:07:06;;;;;;;9.67;4.37;;;;;;;8.49;100.00;102507.25;5073172;28;20094;-36
2023/05/17 03:09:32;;;;;;;13.95;4.30;;;;;;;8.48;100.00;102510.97;5073957;28;20032;-36
2023/05/17 03:11:57;;;;;;;6.67;3.63;;;;;;;8.50;100.00;102520.59;5073716;28;20058;-36
2023/05/17 03:14:23;;;;;;;8.80;4.00;;;;;;;8.47;100.00;102517.41;5072774;28;20332;-36
2023/05/17 03:16:48;;;;;;;12.10;4.43;;;;;;;8.50;100.00;102520.59;5073419;28;20029;-36
2023/05/17 03:19:14;;;;;;;9.70;4.60;;;;;;;8.55;100.00;102530.84;5073015;28;20059;-36
2023/05/17 03:21:39;;;;;;;10.35;4.20;;;;;;;8.49;100.00;102518.91;5073052;28;20372;-36
2023/05/17 03:24:05;;;;;;;8.43;4.07;;;;;;;8.47;100.00;102522.78;5072972;28;20120;-36
2023/05/17 03:26:32;;;;;;;9.43;4.50;;;;;;;8.56;100.00;102523.59;5073481;28;20020;-36
2023/05/17 03:28:57;;;;;;;10.45;4.53;;;;;;;8.47;100.00;102525.47;5072900;28;20467;-36
2023/05/17 03:31:22;;;;;;;11.83;4.77;;;;;;;8.47;100.00;102526.31;5073275;28;20032;-36
2023/05/17 03:33:48;;;;;;;10.57;4.70;;;;;;;8.50;100.00;102535.94;5072639;28;20417;-36
2023/05/17 03:36:13;;;;;;;12.10;4.33;;;;;;;8.54;100.00;102534.56;5073467;28;20385;-36
2023/05/17 03:38:38;;;;;;;9.50;5.00;;;;;;;8.50;100.00;102536.78;5072858;28;20020;-36
2023/05/17 03:41:04;;;;;;;8.57;4.10;;;;;;;8.50;100.00;102542.16;5072553;28;20365;-36
2023/05/17 03:43:29;;;;;;;10.88;4.57;;;;;;;8.28;100.00;102521.31;5073027;28;20106;-36
2023/05/17 03:45:54;;;;;;;10.77;4.20;;;;;;;8.36;100.00;102534.81;5073160;28;20028;-36
2023/05/17 03:48:20;;;;;;;10.33;4.43;;;;;;;8.42;100.00;102544.88;5077099;28;20103;-36
2023/05/17 03:50:45;;;;;;;10.93;4.50;;;;;;;8.39;100.00;102542.53;5076648;28;20032;-35
2023/05/17 03:53:10;;;;;;;13.33;4.43;;;;;;;8.39;100.00;102544.38;5077257;28;20028;-35
2023/05/17 03:55:36;;;;;;;12.40;4.50;;;;;;;8.35;100.00;102541.19;5076493;28;20068;-35
2023/05/17 03:58:01;;;;;;;13.38;4.68;;;;;;;8.38;100.00;102540.84;5076846;28;20411;-35
2023/05/17 04:00:27;;;;;;;9.02;4.18;;;;;;;8.28;100.00;102548.28;5077136;28;20050;-35
2023/05/17 04:02:52;;;;;;;12.50;4.17;;;;;;;8.29;100.00;102543.72;5076342;28;20017;-35
2023/05/17 04:05:18;;;;;;;10.53;4.57;;;;;;;8.29;100.00;102543.72;5076506;28;20032;-36
2023/05/17 04:07:43;;;;;;;10.77;4.63;;;;;;;8.39;100.00;102563.25;5076545;28;20298;-36
2023/05/17 04:10:09;;;;;;;9.83;4.13;;;;;;;8.34;100.00;102563.75;5076465;28;20377;-36
2023/05/17 04:12:35;;;;;;;8.73;3.83;;;;;;;8.36;100.00;102567.16;5075584;28;20021;-35
2023/05/17 04:15:00;;;;;;;7.70;4.20;;;;;;;8.37;100.00;102568.00;5076088;28;20111;-36
2023/05/17 04:17:26;;;;;;;14.18;4.40;;;;;;;8.34;100.00;102562.91;5076085;28;20048;-35
2023/05/17 04:19:52;;;;;;;8.48;4.75;;;;;;;8.30;100.00;102562.44;5075829;28;20068;-35
2023/05/17 04:22:17;;;;;;;8.52;4.10;;;;;;;8.36;100.00;102559.06;5076755;28;20032;-36
2023/05/17 04:24:42;;;;;;;10.63;4.00;;;;;;;8.37;100.00;102568.84;5076402;28;20173;-36
2023/05/17 04:27:08;;;;;;;10.07;4.13;;;;;;;8.29;100.00;102571.50;5076433;28;20173;-36
2023/05/17 04:29:33;;;;;;;10.82;4.55;;;;;;;8.34;100.00;102574.53;5075780;28;20028;-36
2023/05/17 04:31:59;;;;;;;9.30;4.23;;;;;;;8.39;100.00;102577.56;5075801;28;20039;-36
2023/05/17 04:34:25;;;;;;;8.87;3.77;;;;;;;8.47;100.00;102584.81;5075701;28;20109;-35
2023/05/17 04:36:50;;;;;;;10.38;4.47;;;;;;;8.47;100.00;102579.41;5075690;28;20052;-35
2023/05/17 04:39:19;;;;;;;13.07;5.13;;;;;;;8.52;100.00;102582.41;5075551;28;20029;-35
2023/05/17 04:41:45;;;;;;;9.38;4.47;;;;;;;8.57;100.00;102590.81;5075876;28;20055;-36
2023/05/17 04:44:11;;;;;;;9.80;4.13;;;;;;;8.53;100.00;102589.47;5075576;28;20178;-35
2023/05/17 04:46:36;;;;;;;12.18;4.72;;;;;;;8.56;100.00;102593.69;5075738;28;20039;-35
2023/05/17 04:49:02;;;;;;;12.17;4.23;;;;;;;8.63;100.00;102597.38;5076304;28;20106;-35
2023/05/17 04:51:28;;;;;;;11.23;4.95;;;;;;;8.63;100.00;102594.66;5075754;28;20031;-35
2023/05/17 04:53:54;;;;;;;13.55;4.97;;;;;;;8.72;100.00;102604.41;5075361;28;20385;-36
2023/05/17 04:56:19;;;;;;;10.15;4.35;;;;;;;8.71;100.00;102606.25;5075818;28;20032;-35
2023/05/17 04:58:45;;;;;;;17.52;4.80;;;;;;;8.77;100.00;102608.25;5075156;28;20028;-38
2023/05/17 05:01:10;;;;;;;12.60;5.23;;;;;;;8.85;100.00;102610.09;5074784;28;20512;-36
2023/05/17 05:03:36;;;;;;;16.02;4.63;;;;;;;8.82;100.00;102609.59;5074794;28;20028;-36
2023/05/17 05:06:02;;;;;;;10.70;5.18;;;;;;;8.90;100.00;102617.66;5075271;28;20028;-36
2023/05/17 05:08:28;;;;;;;10.30;4.30;;;;;;;8.92;100.00;102619.13;5074744;28;20108;-35
2023/05/17 05:10:54;;;;;;;16.08;5.00;;;;;;;8.97;100.00;102618.59;5075390;28;20107;-36
2023/05/17 05:13:19;;;;;;;13.35;4.45;;;;;;;9.01;100.00;102619.94;5075214;28;20028;-36
2023/05/17 05:15:44;;;;;;;10.93;4.57;;;;;;;9.07;100.00;102610.28;5075489;28;20047;-36
2023/05/17 05:18:10;;;;;;;9.80;4.40;;;;;;;9.25;100.00;102622.50;5074594;28;20298;-36
2023/05/17 05:20:35;;;;;;;15.00;5.03;;;;;;;9.39;100.00;102628.16;5074904;28;20275;-35
2023/05/17 05:23:02;;;;;;;13.20;4.93;;;;;;;9.50;100.00;102631.25;5074546;28;20028;-36
2023/05/17 05:25:28;;;;;;;10.10;4.85;;;;;;;9.59;100.00;102628.50;5074486;28;20521;-35
2023/05/17 05:27:53;;;;;;;11.40;4.65;;;;;;;9.75;100.00;102640.00;5074408;28;20103;-36
2023/05/17 05:30:20;;;;;;;10.47;4.60;;;;;;;9.79;100.00;102640.47;5074767;28;20032;-35
2023/05/17 05:32:47;;;;;;;13.80;5.00;;;;;;;9.82;100.00;102633.88;5074558;28;20275;-36
2023/05/17 05:35:13;;;;;;;13.43;4.70;;;;;;;9.88;100.00;102630.44;5074577;28;20423;-36
2023/05/17 05:37:38;;;;;;;11.30;4.35;;;;;;;10.01;100.00;102634.22;5074529;28;20029;-36
2023/05/17 05:40:04;;;;;;;9.20;4.73;;;;;;;10.10;100.00;102636.81;5075083;28;20040;-35
2023/05/17 05:42:29;;;;;;;13.02;4.78;;;;;;;10.13;100.00;102642.69;5074368;28;20020;-36
2023/05/17 05:44:54;;;;;;;14.70;4.37;;;;;;;10.18;100.00;102644.84;5074499;28;20107;-36
2023/05/17 05:47:20;;;;;;;9.53;4.33;;;;;;;10.27;100.00;102649.19;5074452;28;20070;-36
2023/05/17 05:49:45;;;;;;;11.90;4.23;;;;;;;10.32;100.00;102644.06;5074883;28;20328;-36
2023/05/17 05:52:10;;;;;;;12.27;4.40;;;;;;;10.43;100.00;102651.72;5074939;28;20034;-36
2023/05/17 05:54:36;;;;;;;16.27;4.30;;;;;;;10.51;100.00;102658.91;5074277;28;20024;-36
2023/05/17 05:57:01;;;;;;;14.03;3.63;;;;;;;10.60;100.00;102657.78;5074507;28;20254;-36
2023/05/17 05:59:27;;;;;;;12.77;3.87;;;;;;;10.47;100.00;102649.47;5073985;28;20044;-36
2023/05/17 06:01:52;;;;;;;10.68;4.28;;;;;;;10.57;100.00;102664.41;5074727;28;20300;-36
2023/05/17 06:04:17;;;;;;;10.87;3.83;;;;;;;10.62;100.00;102665.72;5074670;28;20346;-36
2023/05/17 06:06:43;;;;;;;15.70;4.78;;;;;;;10.66;100.00;102667.84;5073816;28;20043;-36
2023/05/17 06:09:11;;;;;;;11.40;3.77;;;;;;;10.78;100.00;102671.78;5073882;28;20086;-36
2023/05/17 06:11:36;;;;;;;10.43;3.10;;;;;;;10.75;100.00;102674.84;5074656;28;20645;-35
2023/05/17 06:14:02;;;;;;;12.35;4.18;;;;;;;10.72;100.00;102677.09;5074783;28;20112;-36
2023/05/17 06:16:27;;;;;;;11.98;3.13;;;;;;;10.72;100.00;102675.22;5074042;28;20024;-35
2023/05/17 06:18:52;;;;;;;8.60;2.60;;;;;;;10.79;100.00;102686.16;5073955;28;20031;-36
2023/05/17 06:21:18;;;;;;;11.33;2.87;;;;;;;10.80;100.00;102682.41;5074191;28;20020;-35
2023/05/17 06:23:43;;;;;;;11.05;2.85;;;;;;;10.82;100.00;102686.59;5073886;28;20029;-36
2023/05/17 06:26:10;;;;;;;9.40;2.67;;;;;;;10.93;100.00;102695.25;5073776;28;20040;-35
2023/05/17 06:28:36;;;;;;;12.85;3.25;;;;;;;10.90;100.00;102693.78;5073741;28;20024;-35
2023/05/17 06:31:01;;;;;;;11.05;2.97;;;;;;;10.94;100.00;102705.06;5074653;28;20067;-36
2023/05/17 06:33:26;;;;;;;12.27;3.35;;;;;;;11.00;100.00;102698.91;5073697;28;20441;-36
2023/05/17 06:35:53;;;;;;;8.30;2.30;;;;;;;11.06;100.00;102698.97;5073753;28;20024;-36
2023/05/17 06:38:18;;;;;;;9.88;2.72;;;;;;;11.16;100.00;102693.25;5073844;28;20743;-36
2023/05/17 06:40:44;;;;;;;12.55;2.65;;;;;;;11.21;99.04;102695.41;5073605;28;20029;-36
2023/05/17 06:43:09;;;;;;;12.43;2.83;;;;;;;11.26;96.16;102698.38;5073875;28;20516;-36
2023/05/17 06:45:34;;;;;;;10.50;2.60;;;;;;;11.25;93.38;102691.28;5073924;28;20075;-36
2023/05/17 06:48:00;;;;;;;8.20;2.40;;;;;;;11.39;92.92;102709.38;5074134;28;20271;-36
2023/05/17 06:50:27;;;;;;;11.63;2.90;;;;;;;11.39;91.42;102711.25;5073326;28;20032;-36
2023/05/17 06:52:52;;;;;;;10.32;3.08;;;;;;;11.46;92.76;102701.31;5073273;28;20310;-36
2023/05/17 06:55:18;;;;;;;10.95;2.25;;;;;;;11.54;89.92;102701.19;5073482;28;20449;-36
2023/05/17 06:57:43;;;;;;;10.70;2.30;;;;;;;11.46;90.04;102696.72;5073997;28;20029;-36
2023/05/17 07:00:09;;;;;;;10.60;2.65;;;;;;;11.38;91.95;102713.13;5073293;28;20052;-36
2023/05/17 07:02:36;;;;;;;12.15;3.42;;;;;;;11.23;90.88;102707.75;5073400;28;20031;-36
2023/05/17 07:05:01;;;;;;;;;;;;;;;11.37;94.93;102716.00;5073411;28;20017;-36
2023/05/17 07:07:26;;;;;;;7.23;2.03;;;;;;;11.27;92.25;102719.88;5073406;28;20279;-36
2023/05/17 07:09:51;;;;;;;12.07;2.73;;;;;;;11.28;91.70;102715.28;5074007;28;20297;-35
2023/05/17 07:12:17;;;;;;;12.13;2.90;;;;;;;11.27;92.69;102710.88;5073222;28;20165;-36
2023/05/17 07:14:42;;;;;;;7.60;2.30;;;;;;;11.45;92.62;102724.03;5073253;28;20067;-36
2023/05/17 07:17:10;;;;;;;10.07;2.60;;;;;;;11.51;88.24;102726.78;5073268;28;20262;-36
2023/05/17 07:19:35;;;;;;;9.68;2.60;;;;;;;11.63;88.97;102726.31;5073143;28;20036;-36
2023/05/17 07:22:01;;;;;;;13.07;2.83;;;;;;;11.66;86.87;102725.91;5074924;28;20057;-36
2023/05/17 07:24:26;;;;;;;7.73;2.00;;;;;;;11.71;87.45;102727.03;5077816;28;20044;-36
2023/05/17 07:26:51;;;;;;;8.30;1.97;;;;;;;11.62;86.29;102730.91;5077004;28;20250;-36
2023/05/17 07:29:17;;;;;;;9.60;2.13;;;;;;;11.63;84.54;102727.16;5077724;28;20033;-36
2023/05/17 07:31:42;;;;;;;9.00;2.78;;;;;;;11.62;84.27;102738.19;5077783;28;20027;-36
2023/05/17 07:34:07;;;;;;;10.30;2.67;;;;;;;11.60;84.16;102741.06;5076848;28;20050;-36
2023/05/17 07:36:33;;;;;;;7.93;2.37;;;;;;;11.69;85.42;102741.78;5077143;28;20258;-36
2023/05/17 07:38:58;;;;;;;6.30;1.77;;;;;;;11.74;83.42;102736.63;5077042;28;20263;-36
2023/05/17 07:41:24;;;;;;;8.55;2.55;;;;;;;11.98;86.04;102740.88;5077727;28;20040;-36
2023/05/17 07:43:50;;;;;;;9.60;1.98;;;;;;;12.01;82.63;102741.34;5077142;28;20055;-36
2023/05/17 07:46:16;;;;;;;7.97;2.08;;;;;;;11.98;80.74;102744.41;5077711;28;20055;-38
2023/05/17 07:48:41;;;;;;;;;;;;;;;12.16;84.01;102741.25;5076989;28;20032;-36
2023/05/17 07:51:07;;;;;;;7.85;2.38;;;;;;;12.23;79.24;102744.00;5077069;28;19961;-36
2023/05/17 07:53:32;;;;;;;8.93;2.13;;;;;;;12.26;78.26;102754.47;5077040;28;20063;-36
2023/05/17 07:55:57;;;;;;;7.70;2.13;;;;;;;12.18;79.92;102757.31;5076760;28;20024;-36
2023/05/17 07:58:23;;;;;;;8.85;1.88;;;;;;;11.99;78.84;102746.09;5076621;28;20472;-36
2023/05/17 08:00:48;;;;;;;8.68;2.33;;;;;;;12.11;78.16;102744.56;5077180;28;20055;-36
2023/05/17 08:03:13;;;;;;;10.00;2.15;;;;;;;12.45;78.65;102752.97;5076234;28;20027;-36
2023/05/17 08:05:39;;;;;;;9.15;2.65;;;;;;;12.49;74.86;102751.50;5077403;28;20021;-36
2023/05/17 08:08:05;;;;;;;7.18;1.90;;;;;;;12.66;75.83;102762.94;5076455;28;20022;-36
2023/05/17 08:10:30;;;;;;;7.40;1.73;;;;;;;12.77;74.54;102748.78;5076711;28;20024;-36
2023/05/17 08:12:55;;;;;;;7.25;2.03;;;;;;;12.94;74.00;102747.44;5076335;28;20361;-36
2023/05/17 08:15:21;;;;;;;8.40;2.00;;;;;;;12.94;71.96;102750.16;5076619;28;20029;-36
2023/05/17 08:17:46;;;;;;;6.93;2.45;;;;;;;13.00;73.11;102762.09;5076252;28;20267;-36
2023/05/17 08:20:12;;;;;;;7.97;2.28;;;;;;;12.78;71.77;102758.59;5075978;28;20033;-36
2023/05/17 08:22:37;;;;;;;9.35;2.22;;;;;;;12.72;72.18;102762.13;5076178;28;20029;-36
2023/05/17 08:25:03;;;;;;;9.65;1.92;;;;;;;12.80;72.10;102749.25;5077049;28;20074;-36
2023/05/17 08:27:31;;;;;;;7.47;2.30;;;;;;;13.06;71.98;102751.25;5076091;28;20031;-36
2023/05/17 08:29:56;;;;;;;7.90;1.92;;;;;;;12.95;66.79;102757.25;5075999;28;20468;-36
2023/05/17 08:32:22;;;;;;;7.38;1.92;;;;;;;13.08;69.71;102761.94;5075284;28;20047;-36
2023/05/17 08:34:48;;;;;;;7.82;2.15;;;;;;;12.95;69.49;102770.84;5075719;28;20039;-36
2023/05/17 08:37:13;;;;;;;9.32;2.17;;;;;;;12.77;67.43;102762.38;5076535;28;20102;-36
2023/05/17 08:39:39;;;;;;;8.90;3.00;;;;;;;13.11;68.90;102762.34;5076631;28;20035;-36
2023/05/17 08:42:07;;;;;;;9.40;2.20;;;;;;;13.27;66.97;102763.09;5076430;28;20024;-36
2023/05/17 08:44:33;;;;;;;5.50;1.63;;;;;;;13.54;67.71;102754.00;5075454;28;20465;-36
2023/05/17 08:46:59;;;;;;;6.00;1.75;;;;;;;13.69;68.52;102753.84;5076322;28;20027;-36
2023/05/17 08:49:30;;;;;;;9.35;2.63;;;;;;;13.60;67.07;102755.91;5075961;28;20036;-36
2023/05/17 08:51:58;;;;;;;7.20;1.70;;;;;;;13.68;68.34;102760.31;5075963;28;20029;-36
2023/05/17 08:54:24;;;;;;;6.80;2.53;;;;;;;13.54;67.64;102743.13;5075651;28;20114;-36
2023/05/17 08:56:57;;;;;;;5.18;1.80;;;;;;;13.50;64.00;102763.59;5075370;28;20484;-36
2023/05/17 08:59:25;;;;;;;6.00;1.63;;;;;;;13.75;65.33;102765.75;5075061;28;20029;-36
2023/05/17 09:01:53;;;;;;;5.25;1.40;;;;;;;13.88;64.11;102765.81;5075512;28;20031;-36
2023/05/17 09:04:19;;;;;;;6.93;1.85;;;;;;;13.97;65.34;102770.00;5075395;28;20051;-36
2023/05/17 09:06:44;;;;;;;;;;;;;;;14.05;65.97;102764.34;5076169;28;20064;-36
2023/05/17 09:09:10;;;;;;;5.10;1.42;;;;;;;13.78;66.36;102768.91;5075375;28;19943;-36
2023/05/17 09:11:35;;;;;;;6.75;1.55;;;;;;;13.63;67.59;102768.25;5075724;28;20535;-36
2023/05/17 09:14:03;;;;;;;5.88;1.90;;;;;;;13.53;69.14;102774.06;5075528;28;20024;-36
2023/05/17 09:16:35;;;;;;;8.13;1.98;;;;;;;13.70;70.07;102758.22;5075443;28;20056;-36
2023/05/17 09:19:02;;;;;;;7.72;2.08;;;;;;;13.86;68.35;102763.28;5075124;28;20037;-36
2023/05/17 09:21:30;;;;;;;9.90;1.90;;;;;;;13.98;67.18;102755.34;5075282;28;20078;-36
2023/05/17 09:23:58;;;;;;;5.63;1.65;;;;;;;14.29;66.97;102759.34;5074993;28;20063;-36
2023/05/17 09:26:24;;;;;;;7.40;2.20;;;;;;;14.54;65.20;102757.72;5075849;28;20025;-36
2023/05/17 09:28:52;;;;;;;12.13;2.53;;;;;;;14.99;61.88;102757.84;5074861;28;20037;-36
2023/05/17 09:31:17;;;;;;;7.57;1.90;;;;;;;14.92;62.07;102767.88;5074868;28;20543;-36
2023/05/17 09:33:49;;;;;;;9.23;1.77;;;;;;;14.75;61.67;102767.53;5075096;28;20024;-36
2023/05/17 09:36:22;;;;;;;6.65;1.90;;;;;;;14.59;63.21;102768.81;5074689;28;20097;-36
2023/05/17 09:39:04;;;;;;;6.80;1.83;;;;;;;14.34;63.98;102756.81;5075223;28;20029;-36
2023/05/17 09:41:31;;;;;;;7.40;1.55;;;;;;;14.56;63.24;102763.78;5074844;28;20436;-36
2023/05/17 09:43:59;;;;;;;4.50;1.17;;;;;;;14.61;60.27;102749.53;5073782;28;20035;-36
2023/05/17 09:46:25;;;;;;;4.93;1.42;;;;;;;15.10;60.39;102765.34;5075423;28;20559;-36
2023/05/17 09:48:54;;;;;;;6.05;1.55;;;;;;;15.29;59.92;102751.84;5074238;28;20078;-36
2023/05/17 09:51:33;;;;;;;5.80;1.33;;;;;;;15.28;59.98;102751.03;5074501;28;20079;-36
2023/05/17 09:53:58;;;;;;;8.23;1.92;;;;;;;14.86;61.08;102764.13;5074990;28;20078;-36
2023/05/17 09:56:28;;;;;;;7.20;1.92;;;;;;;14.88;62.52;102751.16;5074957;28;20024;-36
2023/05/17 09:58:54;;;;;;;7.25;1.80;;;;;;;15.11;62.38;102756.09;5074281;28;20029;-36
2023/05/17 10:01:21;;;;;;;9.27;2.15;;;;;;;15.35;60.27;102761.88;5075403;28;20368;-36
2023/05/17 10:03:49;;;;;;;6.85;1.70;;;;;;;15.38;57.25;102761.47;5074287;28;20033;-36
2023/05/17 10:06:17;;;;;;;7.18;2.35;;;;;;;15.63;59.21;102754.22;5074226;28;20377;-36
2023/05/17 10:08:45;;;;;;;4.18;1.50;;;;;;;15.70;58.38;102760.47;5074087;28;20028;-36
2023/05/17 10:11:10;;;;;;;4.10;1.40;;;;;;;15.62;54.67;102747.09;5074118;28;20040;-37
2023/05/17 10:14:04;;;;;;;7.15;1.60;;;;;;;16.01;58.49;102756.09;5074001;28;20040;-36
2023/05/17 10:16:32;;;;;;;8.52;1.50;;;;;;;15.93;55.32;102765.38;5074817;28;20036;-36
2023/05/17 10:18:57;;;;;;;7.43;1.60;;;;;;;15.85;55.49;102765.63;5073905;28;20111;-39
2023/05/17 10:21:24;;;;;;;6.05;1.83;;;;;;;15.98;54.47;102769.34;5074053;28;20219;-36
2023/05/17 10:23:51;;;;;;;4.90;1.40;;;;;;;16.09;51.04;102761.25;5073577;28;20036;-36
2023/05/17 10:26:16;;;;;;;5.60;1.50;;;;;;;16.07;49.28;102760.66;5074470;28;20059;-36
2023/05/17 10:28:45;;;;;;;5.70;1.70;;;;;;;16.22;50.20;102755.72;5073886;28;20177;-36
2023/05/17 10:31:11;;;;;;;5.82;1.27;;;;;;;16.35;48.65;102756.69;5074381;28;20043;-36
2023/05/17 10:33:38;;;;;;;3.90;1.23;;;;;;;16.46;48.20;102764.97;5073799;28;20091;-36
2023/05/17 10:36:05;;;;;;;5.43;1.23;;;;;;;16.08;48.34;102739.66;5074060;28;20024;-36
2023/05/17 10:38:30;;;;;;;4.57;1.30;;;;;;;16.40;50.12;102754.94;5073710;28;20107;-36
2023/05/17 10:40:56;;;;;;;;;;;;;;;16.65;50.77;102752.19;5074310;28;20043;-36
2023/05/17 10:43:23;;;;;;;6.88;1.05;;;;;;;16.31;50.18;102752.72;5073668;28;20007;-36
2023/05/17 10:45:49;;;;;;;5.05;1.30;;;;;;;16.31;50.80;102750.81;5073624;28;20028;-36
2023/05/17 10:48:17;;;;;;;5.75;1.45;;;;;;;16.50;49.78;102732.59;5073935;28;20040;-36
2023/05/17 10:50:45;;;;;;;6.38;1.50;;;;;;;16.63;49.45;102745.25;5073952;28;20054;-36
2023/05/17 10:53:11;;;;;;;5.03;1.45;;;;;;;16.52;50.89;102749.56;5073571;28;20487;-36
2023/05/17 10:55:38;;;;;;;;;;;;;;;16.88;52.95;102751.53;5074137;28;20029;-36
2023/05/17 10:58:10;;;;;;;6.45;1.67;;;;;;;16.32;48.83;102747.03;5073560;28;19954;-36
2023/05/17 11:00:44;;;;;;;3.70;1.77;;;;;;;16.37;49.29;102743.63;5073908;28;20087;-36
2023/05/17 11:03:16;;;;;;;5.55;1.50;;;;;;;16.59;50.74;102741.31;5073730;28;20024;-36
2023/05/17 11:06:02;;;;;;;5.28;1.67;;;;;;;16.63;48.59;102737.06;5073386;28;20428;-37
2023/05/17 11:08:27;;;;;;;4.47;1.30;;;;;;;16.62;49.59;102722.56;5073725;28;20040;-36
2023/05/17 11:11:09;;;;;;;;;;;;;;;17.01;52.05;102734.16;5074382;28;20033;-36
2023/05/17 11:13:44;;;;;;;4.18;1.38;;;;;;;16.89;49.09;102725.91;5073939;28;19912;-37
2023/05/17 11:16:12;;;;;;;5.78;1.50;;;;;;;16.90;48.60;102724.84;5073629;28;20074;-36
2023/05/17 11:18:51;;;;;;;8.88;2.03;;;;;;;16.42;49.03;102728.25;5073171;28;20020;-36
2023/05/17 11:21:18;;;;;;;5.80;1.38;;;;;;;16.50;49.93;102729.84;5074078;28;20028;-37
2023/05/17 11:23:45;;;;;;;5.47;1.58;;;;;;;16.64;48.92;102720.47;5073326;28;20033;-36